Time;durP1;ratioP1;P1;durP2;ratioP2;P2;SDS_P1;SDS_P2;PMS_P1;PMS_P2;Temp;Humidity;BMP_temperature;BMP_pressure;BME280_temperature;BME280_humidity;BME280_pressure;Samples;Min_cycle;Max_cycle;Signal;HPM_P1;HPM_P2
2023/07/28 00:02:07;;;;;;;7.80;3.88;;;16.20;99.90;;;;;;5038749;28;20591;-69
2023/07/28 00:04:35;;;;;;;5.78;3.97;;;16.20;99.90;;;;;;5051160;28;20045;-69
2023/07/28 00:07:05;;;;;;;5.53;3.00;;;16.10;99.90;;;;;;5051813;28;20040;-69
2023/07/28 00:09:32;;;;;;;6.85;3.55;;;16.10;99.90;;;;;;5038573;28;20521;-70
2023/07/28 00:12:00;;;;;;;8.40;3.45;;;16.10;99.90;;;;;;5051957;28;20056;-69
2023/07/28 00:14:27;;;;;;;8.48;3.80;;;16.20;99.90;;;;;;5053672;28;20045;-68
2023/07/28 00:16:56;;;;;;;6.88;3.80;;;16.10;99.90;;;;;;5048521;28;20051;-69
2023/07/28 00:19:23;;;;;;;5.53;3.65;;;16.10;99.90;;;;;;5043823;28;20044;-70
2023/07/28 00:21:51;;;;;;;8.13;5.05;;;16.10;99.90;;;;;;5056837;28;20044;-71
2023/07/28 00:24:18;;;;;;;8.32;4.75;;;16.10;99.90;;;;;;5054356;28;20044;-70
2023/07/28 00:26:45;;;;;;;7.50;4.22;;;16.10;99.90;;;;;;5048081;28;20796;-70
2023/07/28 00:29:12;;;;;;;9.38;4.35;;;16.10;99.90;;;;;;5046782;28;20131;-70
2023/07/28 00:31:39;;;;;;;10.77;4.82;;;16.10;99.90;;;;;;5053137;28;20059;-70
2023/07/28 00:34:07;;;;;;;10.05;4.72;;;16.10;99.90;;;;;;5037708;28;20040;-71
2023/07/28 00:36:34;;;;;;;9.73;5.28;;;16.10;99.90;;;;;;5045165;28;20048;-71
2023/07/28 00:39:01;;;;;;;7.60;4.45;;;16.10;99.90;;;;;;5050823;28;20051;-69
2023/07/28 00:41:28;;;;;;;7.65;4.70;;;16.10;99.90;;;;;;5047579;28;20043;-70
2023/07/28 00:43:55;;;;;;;6.22;3.50;;;16.10;99.90;;;;;;5050663;28;20080;-70
2023/07/28 00:46:22;;;;;;;6.10;3.33;;;16.10;99.90;;;;;;5033541;28;20098;-70
2023/07/28 00:48:48;;;;;;;6.30;3.58;;;16.10;99.90;;;;;;5037540;28;20134;-70
2023/07/28 00:51:16;;;;;;;6.45;3.80;;;16.10;99.90;;;;;;5030742;28;20122;-70
2023/07/28 00:53:43;;;;;;;5.90;4.03;;;16.00;99.90;;;;;;5011476;28;20603;-70
2023/07/28 00:56:11;;;;;;;5.47;3.70;;;16.10;99.90;;;;;;5030368;28;20600;-70
2023/07/28 00:58:37;;;;;;;6.97;3.42;;;16.10;99.90;;;;;;5022729;28;20056;-69
2023/07/28 01:01:04;;;;;;;5.43;3.47;;;16.00;99.90;;;;;;5020293;28;20794;-69
2023/07/28 01:03:31;;;;;;;5.60;3.65;;;16.10;99.90;;;;;;5030224;28;20095;-70
2023/07/28 01:06:24;;;;;;;5.50;3.88;;;16.00;99.90;;;;;;5036954;28;20041;-69
2023/07/28 01:09:24;;;;;;;3.58;2.58;;;16.00;99.90;;;;;;5035015;28;20566;-70
2023/07/28 01:11:55;;;;;;;4.40;2.50;;;16.00;99.90;;;;;;5031771;28;20040;-70
2023/07/28 01:14:22;;;;;;;5.97;3.03;;;16.10;99.90;;;;;;5036105;28;20073;-70
2023/07/28 01:16:50;;;;;;;5.78;3.35;;;16.00;99.90;;;;;;5029585;28;20052;-70
2023/07/28 01:19:18;;;;;;;6.25;3.50;;;16.00;99.90;;;;;;5031409;28;20102;-69
2023/07/28 01:21:49;;;;;;;9.15;5.15;;;16.00;99.90;;;;;;5034009;28;20572;-70
2023/07/28 01:24:41;;;;;;;9.50;3.83;;;16.00;99.90;;;;;;5031277;28;20100;-69
2023/07/28 01:27:09;;;;;;;9.52;4.53;;;16.00;99.90;;;;;;5037757;28;20053;-70
2023/07/28 01:29:36;;;;;;;8.88;5.80;;;16.00;99.90;;;;;;5030909;28;20470;-70
2023/07/28 01:32:04;;;;;;;9.43;5.57;;;16.00;99.90;;;;;;5034362;28;20087;-70
2023/07/28 01:34:31;;;;;;;11.40;6.05;;;16.00;99.90;;;;;;5011387;28;20597;-69
2023/07/28 01:36:58;;;;;;;12.45;6.40;;;16.00;99.90;;;;;;5014702;28;20041;-70
2023/07/28 01:39:24;;;;;;;12.65;7.32;;;16.00;99.90;;;;;;5033355;28;20076;-69
2023/07/28 01:41:51;;;;;;;17.27;8.25;;;15.90;99.90;;;;;;5019393;28;20458;-70
2023/07/28 01:44:18;;;;;;;16.83;8.55;;;15.90;99.90;;;;;;5018577;28;20053;-70
2023/07/28 01:46:44;;;;;;;18.40;9.35;;;15.90;99.90;;;;;;5043472;28;20048;-69
2023/07/28 01:49:11;;;;;;;17.98;8.52;;;16.00;99.90;;;;;;5044408;28;20099;-69
2023/07/28 01:51:39;;;;;;;21.33;9.35;;;15.90;99.90;;;;;;5019987;28;20049;-71
2023/07/28 01:54:06;;;;;;;17.27;9.45;;;16.00;99.90;;;;;;5028295;28;20051;-68
2023/07/28 01:56:33;;;;;;;25.10;10.40;;;16.00;99.90;;;;;;5037034;28;20087;-69
2023/07/28 01:59:00;;;;;;;18.38;8.63;;;16.00;99.90;;;;;;5017660;28;20136;-69
2023/07/28 02:01:29;;;;;;;21.95;10.13;;;16.00;99.90;;;;;;5020012;28;20041;-69
2023/07/28 02:03:56;;;;;;;20.02;8.60;;;16.00;99.90;;;;;;5018281;28;20037;-69
2023/07/28 02:06:23;;;;;;;19.45;9.73;;;15.90;99.90;;;;;;5039186;28;20507;-68
2023/07/28 02:08:49;;;;;;;18.20;9.45;;;16.00;99.90;;;;;;5023168;28;20045;-68
2023/07/28 02:11:16;;;;;;;27.02;10.43;;;16.00;99.90;;;;;;5027812;28;20033;-69
2023/07/28 02:13:43;;;;;;;18.08;8.48;;;16.00;99.90;;;;;;5049234;28;20044;-69
2023/07/28 02:16:14;;;;;;;19.27;9.77;;;16.00;99.90;;;;;;5045175;28;20041;-69
2023/07/28 02:18:41;;;;;;;19.33;8.77;;;16.00;99.90;;;;;;5049895;28;20044;-69
2023/07/28 02:21:10;;;;;;;20.15;7.82;;;16.00;99.90;;;;;;5044251;28;20045;-69
2023/07/28 02:23:37;;;;;;;17.25;7.95;;;16.00;99.90;;;;;;5040240;28;20045;-69
2023/07/28 02:26:04;;;;;;;18.90;8.02;;;16.00;99.90;;;;;;5027427;28;20045;-69
2023/07/28 02:28:30;;;;;;;19.60;9.35;;;16.00;99.90;;;;;;5041794;28;20106;-69
2023/07/28 02:30:58;;;;;;;15.18;7.30;;;16.00;99.90;;;;;;5042108;28;20049;-68
2023/07/28 02:33:24;;;;;;;11.98;7.15;;;16.00;99.90;;;;;;5034780;28;20041;-69
2023/07/28 02:35:51;;;;;;;11.05;5.15;;;16.00;99.90;;;;;;5031571;28;20041;-68
2023/07/28 02:38:18;;;;;;;11.15;5.68;;;16.00;99.90;;;;;;5036189;28;20114;-69
2023/07/28 02:40:45;;;;;;;8.38;4.38;;;16.00;99.90;;;;;;5024342;28;20128;-69
2023/07/28 02:43:12;;;;;;;9.95;4.72;;;16.00;99.90;;;;;;5022900;28;20145;-69
2023/07/28 02:45:39;;;;;;;11.18;4.93;;;16.00;99.90;;;;;;5033677;28;20083;-69
2023/07/28 02:48:05;;;;;;;11.98;5.50;;;16.00;99.90;;;;;;5027700;28;20839;-70
2023/07/28 02:50:34;;;;;;;14.02;5.00;;;16.00;99.90;;;;;;5022661;28;20037;-69
2023/07/28 02:53:00;;;;;;;8.77;4.38;;;16.00;99.90;;;;;;5020166;28;20102;-71
2023/07/28 02:55:27;;;;;;;10.57;5.15;;;16.00;99.90;;;;;;5028905;28;20539;-70
2023/07/28 02:57:54;;;;;;;7.15;4.22;;;16.00;99.90;;;;;;5028326;28;20303;-70
2023/07/28 03:00:21;;;;;;;9.95;4.90;;;16.00;99.90;;;;;;5014814;28;20061;-67
2023/07/28 03:02:48;;;;;;;10.60;5.65;;;16.00;99.90;;;;;;5015250;28;20118;-71
2023/07/28 03:05:15;;;;;;;11.00;5.57;;;16.00;99.90;;;;;;5029595;28;20099;-69
2023/07/28 03:08:01;;;;;;;12.30;6.47;;;16.00;99.90;;;;;;5017424;28;20119;-69
2023/07/28 03:10:28;;;;;;;13.05;6.35;;;16.00;99.90;;;;;;5024374;28;20041;-69
2023/07/28 03:12:56;;;;;;;13.32;6.50;;;16.00;99.90;;;;;;5024603;28;20102;-69
2023/07/28 03:15:23;;;;;;;12.30;6.47;;;16.00;99.90;;;;;;5018059;28;20049;-69
2023/07/28 03:17:50;;;;;;;15.57;6.75;;;16.00;99.90;;;;;;5026714;28;20052;-69
2023/07/28 03:20:17;;;;;;;13.93;6.60;;;16.10;99.90;;;;;;5025581;28;20749;-69
2023/07/28 03:22:44;;;;;;;18.85;7.53;;;16.00;99.90;;;;;;5026926;28;20044;-69
2023/07/28 03:25:12;;;;;;;18.98;8.27;;;16.10;99.90;;;;;;5018503;28;20446;-71
2023/07/28 03:27:39;;;;;;;26.05;9.35;;;16.10;99.90;;;;;;5048550;28;20052;-71
2023/07/28 03:30:09;;;;;;;17.95;8.73;;;16.00;99.90;;;;;;5053952;28;20657;-69
2023/07/28 03:32:36;;;;;;;22.15;10.77;;;16.00;99.90;;;;;;5043958;28;20041;-70
2023/07/28 03:35:05;;;;;;;21.05;9.18;;;16.00;99.90;;;;;;5046194;28;20520;-71
2023/07/28 03:37:35;;;;;;;20.65;9.60;;;16.00;99.90;;;;;;5034817;28;20769;-71
2023/07/28 03:40:02;;;;;;;23.42;10.32;;;16.00;99.90;;;;;;5034753;28;20053;-70
2023/07/28 03:42:38;;;;;;;22.85;9.73;;;16.00;99.90;;;;;;5038972;28;20087;-70
2023/07/28 03:45:06;;;;;;;27.48;11.70;;;16.00;99.90;;;;;;5041406;28;20106;-69
2023/07/28 03:47:33;;;;;;;27.92;11.65;;;16.10;99.90;;;;;;5041282;28;20036;-69
2023/07/28 03:49:59;;;;;;;30.20;11.93;;;16.00;99.90;;;;;;5041108;28;20063;-69
2023/07/28 03:52:26;;;;;;;33.05;12.85;;;16.00;99.90;;;;;;5032154;28;20749;-69
2023/07/28 03:54:53;;;;;;;31.92;11.77;;;16.00;99.90;;;;;;5037835;28;20048;-69
2023/07/28 03:57:20;;;;;;;28.20;11.35;;;16.00;99.90;;;;;;5046494;28;20048;-71
2023/07/28 03:59:46;;;;;;;31.55;13.13;;;16.00;99.90;;;;;;5036714;28;20083;-68
2023/07/28 04:02:13;;;;;;;33.13;12.80;;;16.00;99.90;;;;;;5032127;28;20638;-69
2023/07/28 04:04:40;;;;;;;40.80;14.57;;;16.00;99.90;;;;;;5030401;28;20055;-70
2023/07/28 04:07:07;;;;;;;33.97;13.80;;;16.00;99.90;;;;;;5032438;28;20128;-69
2023/07/28 04:09:34;;;;;;;36.33;13.48;;;16.00;99.90;;;;;;5046224;28;20033;-71
2023/07/28 04:12:01;;;;;;;37.83;13.60;;;16.00;99.90;;;;;;5019173;28;20709;-69
2023/07/28 04:14:28;;;;;;;30.42;13.48;;;16.00;99.90;;;;;;5031466;28;20054;-71
2023/07/28 04:16:54;;;;;;;39.17;15.18;;;16.00;99.90;;;;;;5032209;28;20048;-70
2023/07/28 04:19:21;;;;;;;41.08;14.98;;;16.00;99.90;;;;;;5029604;28;20098;-71
2023/07/28 04:21:48;;;;;;;39.22;16.08;;;16.00;99.90;;;;;;5032478;28;20048;-71
2023/07/28 04:24:14;;;;;;;39.03;14.45;;;16.00;99.90;;;;;;5015253;28;20037;-71
2023/07/28 04:26:48;;;;;;;40.20;15.65;;;16.00;99.90;;;;;;5027486;28;20065;-69
2023/07/28 04:29:16;;;;;;;35.08;14.68;;;16.00;99.90;;;;;;5036684;28;20159;-71
2023/07/28 04:31:43;;;;;;;31.08;13.25;;;16.00;99.90;;;;;;5055250;28;20036;-70
2023/07/28 04:34:12;;;;;;;35.85;15.23;;;16.00;99.90;;;;;;5032508;28;20095;-70
2023/07/28 04:36:58;;;;;;;34.13;13.77;;;16.00;99.90;;;;;;5049789;28;20037;-70
2023/07/28 04:39:33;;;;;;;30.15;13.10;;;16.10;99.90;;;;;;5050964;28;20541;-71
2023/07/28 04:42:00;;;;;;;27.90;12.77;;;16.10;99.90;;;;;;5032425;28;20033;-71
2023/07/28 04:44:27;;;;;;;25.85;12.88;;;16.10;99.90;;;;;;5036449;28;20124;-71
2023/07/28 04:46:58;;;;;;;28.73;13.30;;;16.10;99.90;;;;;;5033329;28;20045;-70
2023/07/28 04:49:25;;;;;;;28.65;13.23;;;16.10;99.90;;;;;;5047690;28;20044;-70
2023/07/28 04:52:27;;;;;;;29.23;12.45;;;16.10;99.90;;;;;;5053861;28;20044;-70
2023/07/28 04:55:20;;;;;;;29.40;12.73;;;16.10;99.90;;;;;;5049816;28;20040;-70
2023/07/28 04:57:47;;;;;;;26.90;12.55;;;16.10;99.90;;;;;;5058757;28;20028;-71
2023/07/28 05:00:15;;;;;;;26.92;12.82;;;16.20;99.90;;;;;;5052648;28;20051;-68
2023/07/28 05:02:41;;;;;;;27.38;12.77;;;16.20;99.90;;;;;;5053774;28;20041;-69
2023/07/28 05:05:08;;;;;;;23.40;13.07;;;16.20;99.90;;;;;;5065313;28;20128;-70
2023/07/28 05:07:35;;;;;;;29.75;13.85;;;16.20;99.90;;;;;;5059024;28;20067;-71
2023/07/28 05:10:04;;;;;;;23.65;13.07;;;16.20;99.90;;;;;;5049085;28;20086;-70
2023/07/28 05:12:30;;;;;;;28.85;13.10;;;16.20;99.90;;;;;;5074158;28;20143;-70
2023/07/28 05:14:57;;;;;;;26.48;12.77;;;16.20;99.90;;;;;;5060146;28;20037;-71
2023/07/28 05:17:24;;;;;;;24.80;12.30;;;16.20;99.90;;;;;;5055170;28;20032;-70
2023/07/28 05:20:03;;;;;;;25.25;12.88;;;16.20;99.90;;;;;;5052206;28;20044;-71
2023/07/28 05:22:53;;;;;;;21.75;13.13;;;16.30;99.90;;;;;;5056970;28;20045;-70
2023/07/28 05:25:23;;;;;;;29.10;13.50;;;16.20;99.90;;;;;;5053585;28;20036;-71
2023/07/28 05:27:50;;;;;;;26.00;13.90;;;16.30;99.90;;;;;;5037353;28;20120;-69
2023/07/28 05:30:17;;;;;;;26.88;11.80;;;16.30;99.90;;;;;;5070117;28;20067;-70
2023/07/28 05:32:46;;;;;;;17.75;10.73;;;16.30;99.90;;;;;;5054059;28;20090;-70
2023/07/28 05:35:27;;;;;;;21.40;12.52;;;16.30;99.90;;;;;;5060158;28;20124;-69
2023/07/28 05:37:54;;;;;;;22.00;12.27;;;16.30;99.90;;;;;;5070424;28;20033;-69
2023/07/28 05:40:21;;;;;;;18.67;11.25;;;16.30;99.90;;;;;;5061089;28;20063;-69
2023/07/28 05:42:48;;;;;;;19.45;10.80;;;16.30;99.90;;;;;;5075789;28;20029;-71
2023/07/28 05:45:15;;;;;;;18.75;10.98;;;16.30;99.90;;;;;;5059130;28;20048;-69
2023/07/28 05:47:42;;;;;;;18.77;11.48;;;16.30;99.90;;;;;;5059004;28;20049;-72
2023/07/28 05:50:09;;;;;;;18.08;11.52;;;16.30;99.90;;;;;;5058537;28;20037;-69
2023/07/28 05:52:35;;;;;;;21.73;11.68;;;16.40;99.90;;;;;;5044656;28;20047;-71
2023/07/28 05:55:03;;;;;;;16.00;9.77;;;16.40;99.90;;;;;;5039238;28;20025;-70
2023/07/28 05:57:30;;;;;;;19.63;11.25;;;16.40;99.90;;;;;;5057303;28;20053;-70
2023/07/28 06:00:00;;;;;;;16.50;9.70;;;16.40;99.90;;;;;;5056816;28;20045;-70
2023/07/28 06:02:27;;;;;;;19.25;10.65;;;16.40;99.90;;;;;;5056154;28;20045;-71
2023/07/28 06:04:55;;;;;;;15.85;8.95;;;16.40;99.90;;;;;;5037601;28;20065;-72
2023/07/28 06:07:22;;;;;;;21.88;11.07;;;16.40;99.90;;;;;;5037453;28;20044;-69
2023/07/28 06:09:49;;;;;;;14.05;9.25;;;16.50;99.90;;;;;;5018836;28;20040;-71
2023/07/28 06:12:16;;;;;;;18.27;9.80;;;16.50;99.90;;;;;;5018141;28;20126;-70
2023/07/28 06:14:43;;;;;;;14.05;7.85;;;16.50;99.90;;;;;;5023199;28;20059;-70
2023/07/28 06:17:11;;;;;;;15.02;8.85;;;16.50;99.90;;;;;;5011260;28;20133;-70
2023/07/28 06:19:38;;;;;;;12.68;8.32;;;16.60;99.90;;;;;;5013500;28;20057;-69
2023/07/28 06:22:05;;;;;;;14.25;7.18;;;16.60;99.90;;;;;;5025446;28;20041;-70
2023/07/28 06:24:35;;;;;;;13.60;8.18;;;16.60;99.90;;;;;;5017322;28;20033;-72
2023/07/28 06:27:07;;;;;;;10.63;6.60;;;16.60;99.90;;;;;;5029297;28;20103;-71
2023/07/28 06:29:36;;;;;;;15.70;7.77;;;16.60;99.90;;;;;;5039516;28;20041;-71
2023/07/28 06:32:03;;;;;;;11.13;7.15;;;16.70;99.90;;;;;;5032389;28;20045;-70
2023/07/28 06:34:30;;;;;;;14.55;7.85;;;16.70;99.90;;;;;;5040969;28;20033;-71
2023/07/28 06:36:57;;;;;;;13.60;6.55;;;16.80;99.90;;;;;;5039435;28;20035;-71
2023/07/28 06:39:24;;;;;;;11.85;7.43;;;16.80;99.90;;;;;;5043021;28;20591;-72
2023/07/28 06:41:51;;;;;;;14.82;7.13;;;16.80;99.90;;;;;;5041254;28;20045;-71
2023/07/28 06:44:18;;;;;;;13.50;6.95;;;16.80;99.90;;;;;;5009710;28;20121;-71
2023/07/28 06:46:45;;;;;;;11.25;7.22;;;16.80;99.90;;;;;;5012897;28;20041;-71
2023/07/28 06:49:12;;;;;;;13.30;7.13;;;16.90;99.90;;;;;;5040914;28;20667;-71
2023/07/28 06:51:39;;;;;;;11.25;6.55;;;16.90;99.90;;;;;;5013760;28;20045;-71
2023/07/28 06:54:11;;;;;;;11.32;6.60;;;16.90;99.90;;;;;;5037446;28;20045;-71
2023/07/28 06:56:39;;;;;;;11.88;6.60;;;17.00;99.90;;;;;;5015673;28;20041;-72
2023/07/28 06:59:07;;;;;;;11.27;6.43;;;17.10;99.90;;;;;;5042219;28;20098;-70
2023/07/28 07:01:44;;;;;;;13.07;5.85;;;17.20;99.90;;;;;;5035394;28;20037;-69
2023/07/28 07:04:11;;;;;;;12.25;6.97;;;17.20;99.90;;;;;;5034488;28;20404;-72
2023/07/28 07:06:38;;;;;;;13.82;7.22;;;17.20;99.90;;;;;;5000933;28;20049;-70
2023/07/28 07:09:06;;;;;;;11.82;5.63;;;17.20;99.90;;;;;;5013666;28;20041;-71
2023/07/28 07:11:32;;;;;;;8.98;5.95;;;17.30;99.90;;;;;;5041670;28;20051;-72
2023/07/28 07:14:01;;;;;;;14.18;8.40;;;17.20;99.90;;;;;;5038360;28;20037;-71
2023/07/28 07:16:28;;;;;;;18.13;9.65;;;17.30;99.90;;;;;;5033538;28;20045;-71
2023/07/28 07:18:54;;;;;;;15.85;8.27;;;17.30;99.90;;;;;;5032833;28;20136;-71
2023/07/28 07:21:21;;;;;;;14.27;7.90;;;17.20;99.90;;;;;;5028211;28;20056;-70
2023/07/28 07:23:48;;;;;;;21.60;12.57;;;17.30;99.90;;;;;;5052465;28;20047;-70
2023/07/28 07:26:26;;;;;;;27.08;16.38;;;17.30;99.90;;;;;;5025990;28;20062;-70
2023/07/28 07:28:53;;;;;;;42.85;23.40;;;17.30;99.90;;;;;;5028341;28;20044;-70
2023/07/28 07:31:20;;;;;;;41.80;24.27;;;17.30;99.90;;;;;;5030954;28;20331;-71
2023/07/28 07:33:47;;;;;;;48.75;26.25;;;17.30;99.90;;;;;;5039680;28;20055;-70
2023/07/28 07:36:15;;;;;;;47.92;25.45;;;17.40;99.90;;;;;;5033504;28;20045;-70
2023/07/28 07:38:42;;;;;;;45.83;26.10;;;17.40;99.90;;;;;;5030420;28;20037;-72
2023/07/28 07:41:10;;;;;;;43.55;25.50;;;17.40;99.90;;;;;;5030604;28;20132;-70
2023/07/28 07:43:37;;;;;;;35.38;21.23;;;17.40;99.90;;;;;;5028828;28;20053;-71
2023/07/28 07:46:04;;;;;;;39.05;24.77;;;17.40;99.90;;;;;;5040243;28;20507;-70
2023/07/28 07:48:31;;;;;;;38.80;23.38;;;17.40;99.90;;;;;;5057461;28;20029;-72
2023/07/28 07:50:58;;;;;;;43.55;26.90;;;17.50;99.90;;;;;;5037835;28;20044;-72
2023/07/28 07:53:25;;;;;;;44.13;27.40;;;17.50;99.90;;;;;;5051751;28;20040;-71
2023/07/28 07:55:51;;;;;;;35.58;24.30;;;17.50;99.90;;;;;;5034138;28;20061;-73
2023/07/28 07:58:18;;;;;;;36.05;24.58;;;17.50;99.90;;;;;;5059187;28;20037;-73
2023/07/28 08:00:45;;;;;;;42.35;26.67;;;17.60;99.90;;;;;;5066375;28;20045;-73
2023/07/28 08:03:11;;;;;;;41.63;26.58;;;17.60;99.90;;;;;;5054381;28;20033;-73
2023/07/28 08:05:38;;;;;;;29.05;21.27;;;17.60;99.90;;;;;;5053454;28;20060;-74
2023/07/28 08:08:07;;;;;;;26.85;18.52;;;17.60;99.90;;;;;;5059532;28;20064;-73
2023/07/28 08:10:34;;;;;;;20.30;15.80;;;17.60;99.90;;;;;;5061284;28;20083;-73
2023/07/28 08:13:00;;;;;;;16.42;13.73;;;17.50;99.90;;;;;;5058385;28;20114;-73
2023/07/28 08:15:27;;;;;;;19.63;15.00;;;17.50;99.90;;;;;;5059659;28;20168;-73
2023/07/28 08:17:54;;;;;;;16.00;13.40;;;17.60;99.90;;;;;;5059909;28;20067;-73
2023/07/28 08:20:21;;;;;;;19.38;15.57;;;17.70;99.90;;;;;;5053681;28;20082;-73
2023/07/28 08:22:47;;;;;;;20.40;15.85;;;17.60;99.90;;;;;;5052825;28;20070;-73
2023/07/28 08:25:14;;;;;;;19.02;15.27;;;17.60;99.90;;;;;;5052726;28;20040;-72
2023/07/28 08:27:41;;;;;;;19.80;14.50;;;17.60;99.90;;;;;;5046080;28;20134;-72
2023/07/28 08:30:09;;;;;;;19.63;16.17;;;17.60;99.90;;;;;;5035668;28;20059;-72
2023/07/28 08:32:36;;;;;;;20.75;15.65;;;17.60;99.90;;;;;;5062375;28;20041;-71
2023/07/28 08:35:03;;;;;;;22.65;17.40;;;17.60;99.90;;;;;;5063436;28;20044;-73
2023/07/28 08:37:30;;;;;;;18.70;16.05;;;17.50;99.90;;;;;;5069424;28;20345;-72
2023/07/28 08:39:57;;;;;;;17.85;14.90;;;17.70;99.90;;;;;;5070259;28;20043;-72
2023/07/28 08:42:25;;;;;;;18.23;15.55;;;17.80;99.90;;;;;;5046033;28;20044;-73
2023/07/28 08:44:54;;;;;;;15.02;13.35;;;17.90;99.90;;;;;;5046323;28;20496;-69
2023/07/28 08:47:21;;;;;;;18.48;15.98;;;18.00;99.90;;;;;;5050788;28;20148;-70
2023/07/28 08:49:48;;;;;;;17.88;14.60;;;17.90;99.90;;;;;;5047797;28;20039;-70
2023/07/28 08:52:17;;;;;;;18.35;15.70;;;17.90;99.90;;;;;;5047628;28;20391;-70
2023/07/28 08:54:44;;;;;;;19.02;16.15;;;17.90;99.90;;;;;;5027949;28;20052;-69
2023/07/28 08:57:11;;;;;;;19.58;15.95;;;18.00;99.90;;;;;;5039545;28;20048;-69
2023/07/28 08:59:41;;;;;;;22.25;16.35;;;18.20;99.90;;;;;;5053787;28;20040;-71
2023/07/28 09:02:10;;;;;;;20.75;16.70;;;18.30;99.90;;;;;;5042625;28;20640;-71
2023/07/28 09:04:36;;;;;;;21.08;16.27;;;18.40;99.90;;;;;;5050683;28;20365;-70
2023/07/28 09:07:05;;;;;;;21.48;17.13;;;18.40;99.90;;;;;;5054863;28;20058;-71
2023/07/28 09:09:33;;;;;;;19.73;16.25;;;18.30;99.90;;;;;;5044061;28;20079;-71
2023/07/28 09:12:01;;;;;;;17.48;14.52;;;18.50;99.90;;;;;;5047238;28;20571;-71
2023/07/28 09:14:28;;;;;;;16.40;13.57;;;18.50;99.90;;;;;;5045724;28;20098;-71
2023/07/28 09:16:54;;;;;;;16.48;14.68;;;18.60;99.90;;;;;;5043648;28;20055;-71
2023/07/28 09:19:22;;;;;;;16.92;15.18;;;18.80;99.90;;;;;;5045458;28;20102;-70
2023/07/28 09:21:59;;;;;;;17.30;15.43;;;19.10;99.90;;;;;;5051074;28;20665;-71
2023/07/28 09:24:32;;;;;;;15.80;14.40;;;19.00;99.90;;;;;;5045629;28;20049;-73
2023/07/28 09:27:00;;;;;;;19.05;17.25;;;18.80;99.90;;;;;;5055167;28;20056;-71
2023/07/28 09:29:27;;;;;;;19.38;15.85;;;18.80;99.90;;;;;;5049737;28;20033;-73
2023/07/28 09:32:04;;;;;;;17.10;15.35;;;18.90;99.90;;;;;;5037673;28;20105;-73
2023/07/28 09:34:30;;;;;;;15.63;14.20;;;18.80;99.90;;;;;;5061339;28;20095;-73
2023/07/28 09:36:58;;;;;;;16.95;14.70;;;18.80;99.90;;;;;;5018960;28;20045;-72
2023/07/28 09:39:26;;;;;;;14.55;12.88;;;18.80;99.90;;;;;;5042463;28;20040;-72
2023/07/28 09:41:57;;;;;;;16.92;15.00;;;18.80;99.90;;;;;;5062252;28;20044;-72
2023/07/28 09:44:24;;;;;;;16.35;14.75;;;18.80;99.90;;;;;;5060950;28;21335;-71
2023/07/28 09:46:52;;;;;;;16.80;15.13;;;18.80;99.90;;;;;;5044204;28;20048;-72
2023/07/28 09:49:32;;;;;;;15.68;14.27;;;18.90;99.90;;;;;;5047417;28;20044;-73
2023/07/28 09:52:07;;;;;;;17.45;15.70;;;19.00;99.90;;;;;;5044450;28;20550;-72
2023/07/28 09:54:42;;;;;;;17.40;15.90;;;19.40;99.90;;;;;;5049523;28;20037;-72
2023/07/28 09:57:13;;;;;;;19.77;18.08;;;19.70;99.90;;;;;;5046282;28;20050;-71
2023/07/28 09:59:42;;;;;;;21.20;19.23;;;19.60;99.90;;;;;;5050119;28;20506;-72
2023/07/28 10:02:11;;;;;;;22.20;20.30;;;19.60;99.90;;;;;;5046986;28;20036;-72
2023/07/28 10:04:39;;;;;;;23.40;21.30;;;19.60;99.90;;;;;;5058896;28;20044;-72
2023/07/28 10:07:08;;;;;;;25.08;22.92;;;19.70;99.90;;;;;;5034716;28;20274;-72
2023/07/28 10:09:37;;;;;;;25.92;23.63;;;19.70;99.90;;;;;;5047055;28;20106;-72
2023/07/28 10:12:04;;;;;;;27.15;24.77;;;19.90;99.90;;;;;;5054290;28;20041;-72
2023/07/28 10:14:33;;;;;;;25.05;23.15;;;20.00;99.90;;;;;;5051463;28;20099;-71
2023/07/28 10:17:01;;;;;;;28.38;25.95;;;20.40;99.90;;;;;;5043758;28;20060;-72
2023/07/28 10:19:28;;;;;;;28.35;26.02;;;21.00;99.90;;;;;;5054075;28;20121;-71
2023/07/28 10:22:09;;;;;;;27.27;25.17;;;21.30;99.90;;;;;;5043117;28;20763;-72
2023/07/28 10:24:56;;;;;;;26.92;24.90;;;21.60;99.90;;;;;;5041861;28;20428;-72
2023/07/28 10:27:37;;;;;;;27.48;25.40;;;21.80;99.90;;;;;;5040604;28;20075;-71
2023/07/28 10:30:12;;;;;;;27.77;25.83;;;21.90;99.90;;;;;;5046304;28;20099;-72
2023/07/28 10:32:41;;;;;;;27.08;25.08;;;21.90;99.90;;;;;;5024275;28;20045;-71
2023/07/28 10:35:14;;;;;;;27.05;24.88;;;21.80;99.90;;;;;;5037486;28;20416;-71
2023/07/28 10:37:48;;;;;;;26.25;24.25;;;21.60;99.90;;;;;;5024004;28;20057;-71
2023/07/28 10:40:29;;;;;;;27.40;25.40;;;21.30;99.90;;;;;;5038848;28;20466;-71
2023/07/28 10:42:57;;;;;;;25.83;24.02;;;21.10;99.90;;;;;;5036734;28;20044;-72
2023/07/28 10:45:27;;;;;;;26.88;24.65;;;20.90;99.90;;;;;;5044871;28;20060;-72
2023/07/28 10:47:55;;;;;;;25.90;23.85;;;20.80;99.90;;;;;;5044747;28;20041;-71
2023/07/28 10:50:28;;;;;;;25.10;23.33;;;21.00;99.90;;;;;;5042882;28;20040;-72
2023/07/28 10:52:55;;;;;;;25.15;23.10;;;21.10;99.90;;;;;;5032852;28;20791;-73
2023/07/28 10:55:23;;;;;;;25.35;23.63;;;21.30;99.90;;;;;;5045168;28;20154;-73
2023/07/28 10:57:53;;;;;;;26.60;24.85;;;21.40;99.90;;;;;;5048417;28;20037;-73
2023/07/28 11:00:21;;;;;;;26.30;24.33;;;21.50;99.90;;;;;;5050044;28;20048;-71
2023/07/28 11:02:50;;;;;;;27.63;25.85;;;21.60;99.90;;;;;;5032204;28;20124;-72
2023/07/28 11:05:26;;;;;;;28.23;26.33;;;21.70;99.90;;;;;;5027149;28;20055;-72
2023/07/28 11:07:58;;;;;;;30.40;28.23;;;22.10;99.90;;;;;;5031220;28;20040;-72
2023/07/28 11:10:29;;;;;;;27.40;25.42;;;22.50;99.90;;;;;;5028504;28;20038;-72
2023/07/28 11:12:58;;;;;;;28.27;26.38;;;22.60;99.90;;;;;;5032608;28;20066;-72
2023/07/28 11:15:28;;;;;;;27.50;25.50;;;22.30;99.90;;;;;;5030475;28;20040;-72
2023/07/28 11:17:56;;;;;;;27.20;25.30;;;21.90;99.90;;;;;;5005601;28;20075;-72
2023/07/28 11:20:25;;;;;;;29.63;27.73;;;21.60;99.90;;;;;;5023937;28;20040;-71
2023/07/28 11:22:54;;;;;;;27.40;25.63;;;21.70;99.90;;;;;;5030633;28;20127;-71
2023/07/28 11:25:22;;;;;;;25.38;23.77;;;22.10;99.90;;;;;;5042435;28;20048;-71
2023/07/28 11:27:49;;;;;;;25.75;23.92;;;22.50;99.90;;;;;;5024213;28;20605;-71
2023/07/28 11:30:18;;;;;;;30.88;29.05;;;22.60;99.90;;;;;;5031405;28;20202;-71
2023/07/28 11:32:47;;;;;;;26.17;24.50;;;22.60;99.90;;;;;;5031402;28;20620;-72
2023/07/28 11:35:15;;;;;;;26.52;24.80;;;22.70;99.90;;;;;;5045904;28;20072;-71
2023/07/28 11:37:44;;;;;;;26.83;25.08;;;22.90;99.90;;;;;;5033673;28;20055;-72
2023/07/28 11:40:12;;;;;;;28.27;26.33;;;22.80;99.90;;;;;;5016277;28;20056;-71
2023/07/28 11:42:44;;;;;;;29.52;27.52;;;22.80;99.90;;;;;;5030712;28;20053;-71
2023/07/28 11:45:13;;;;;;;27.98;26.17;;;22.70;99.90;;;;;;5026638;28;20084;-72
2023/07/28 11:47:40;;;;;;;28.45;26.50;;;22.50;99.90;;;;;;5026962;28;20072;-71
2023/07/28 11:50:07;;;;;;;27.30;25.45;;;22.00;99.90;;;;;;5011430;28;20052;-72
2023/07/28 11:52:36;;;;;;;26.63;24.73;;;21.60;99.90;;;;;;5026416;28;20695;-72
2023/07/28 11:55:06;;;;;;;26.92;25.13;;;21.60;99.90;;;;;;5027543;28;20049;-72
2023/07/28 11:57:33;;;;;;;26.75;24.90;;;21.60;99.90;;;;;;5020782;28;21377;-72
2023/07/28 12:00:00;;;;;;;27.10;25.20;;;21.70;99.90;;;;;;5029480;28;20403;-72
2023/07/28 12:02:33;;;;;;;26.98;25.17;;;21.80;99.90;;;;;;5023658;28;20083;-72
2023/07/28 12:05:00;;;;;;;28.02;26.02;;;22.10;99.90;;;;;;5024652;28;20647;-72
2023/07/28 12:07:32;;;;;;;28.05;26.15;;;22.50;99.90;;;;;;5022406;28;20045;-73
2023/07/28 12:10:08;;;;;;;28.05;26.15;;;22.70;99.90;;;;;;5022621;28;20049;-72
2023/07/28 12:12:46;;;;;;;28.00;26.13;;;22.90;99.90;;;;;;5045645;28;20045;-72
2023/07/28 12:15:19;;;;;;;28.35;26.35;;;23.00;99.90;;;;;;5037994;28;20036;-72
2023/07/28 12:18:08;;;;;;;29.20;27.17;;;22.80;99.90;;;;;;5026519;28;20709;-72
2023/07/28 12:20:41;;;;;;;28.98;26.98;;;22.60;99.90;;;;;;5033511;28;20380;-72
2023/07/28 12:23:08;;;;;;;30.50;28.27;;;22.30;99.90;;;;;;5031733;28;20049;-72
2023/07/28 12:25:38;;;;;;;31.70;29.40;;;22.20;99.90;;;;;;5025251;28;20052;-72
2023/07/28 12:28:05;;;;;;;30.45;28.25;;;22.30;99.90;;;;;;5028216;28;20060;-72
2023/07/28 12:30:45;;;;;;;31.92;29.20;;;22.30;99.90;;;;;;5025743;28;21312;-72
2023/07/28 12:33:12;;;;;;;30.60;28.40;;;22.40;99.90;;;;;;5026264;28;20041;-73
2023/07/28 12:35:41;;;;;;;30.20;28.20;;;22.40;99.90;;;;;;5030214;28;20045;-73
2023/07/28 12:38:11;;;;;;;30.33;28.42;;;22.40;99.90;;;;;;5030355;28;20037;-72
2023/07/28 12:40:41;;;;;;;29.67;27.77;;;22.80;99.90;;;;;;5028097;28;20068;-72
2023/07/28 12:43:10;;;;;;;26.95;25.17;;;23.40;99.90;;;;;;5031715;28;20654;-71